Time;durP1;ratioP1;P1;durP2;ratioP2;P2;SDS_P1;SDS_P2;PMS_P1;PMS_P2;Temp;Humidity;BMP_temperature;BMP_pressure;BME280_temperature;BME280_humidity;BME280_pressure;Samples;Min_cycle;Max_cycle;Signal;HPM_P1;HPM_P2
2022/10/17 00:00:22;;;;;;;1.58;1.10;;;18.80;58.80;;;;;;6179264;23;20153;-81
2022/10/17 00:02:54;;;;;;;1.02;0.88;;;18.90;58.90;;;;;;6129101;23;20189;-82
2022/10/17 00:05:29;;;;;;;1.13;0.98;;;18.80;58.90;;;;;;6203514;23;20146;-82
2022/10/17 00:07:55;;;;;;;1.00;0.90;;;18.80;58.90;;;;;;6179631;23;20477;-82
2022/10/17 00:10:21;;;;;;;1.13;1.02;;;18.80;58.80;;;;;;6229473;23;20221;-82
2022/10/17 00:12:54;;;;;;;1.10;1.00;;;18.90;58.90;;;;;;6203052;23;20149;-81
2022/10/17 00:15:20;;;;;;;1.42;0.95;;;18.80;58.90;;;;;;6177640;23;20231;-82
2022/10/17 00:17:51;;;;;;;1.00;0.90;;;18.80;58.90;;;;;;6203581;23;20154;-81
2022/10/17 00:20:21;;;;;;;0.90;0.90;;;18.80;58.90;;;;;;6202802;23;20166;-81
2022/10/17 00:22:54;;;;;;;1.40;1.10;;;18.80;58.90;;;;;;6178411;23;20190;-82
2022/10/17 00:25:24;;;;;;;1.13;1.00;;;18.80;58.90;;;;;;6202035;23;20157;-82
2022/10/17 00:28:00;;;;;;;1.20;1.10;;;18.80;58.90;;;;;;6177682;23;20150;-81
2022/10/17 00:30:25;;;;;;;1.58;1.20;;;18.80;58.90;;;;;;6177843;23;20208;-82
2022/10/17 00:32:52;;;;;;;1.30;1.20;;;18.80;58.90;;;;;;6203156;23;20206;-81
2022/10/17 00:35:25;;;;;;;1.40;0.95;;;18.80;58.90;;;;;;6229001;23;20134;-81
2022/10/17 00:38:19;;;;;;;1.23;1.13;;;18.80;58.90;;;;;;6202795;23;20209;-81
2022/10/17 00:40:45;;;;;;;1.20;0.90;;;18.80;59.00;;;;;;6178336;23;20146;-82
2022/10/17 00:43:19;;;;;;;1.30;1.00;;;18.80;59.00;;;;;;6203500;23;20142;-81
2022/10/17 00:45:51;;;;;;;1.15;0.90;;;18.80;59.00;;;;;;6178183;23;20233;-82
2022/10/17 00:48:24;;;;;;;1.20;1.10;;;18.70;59.00;;;;;;6203266;23;20172;-81
2022/10/17 00:50:50;;;;;;;0.80;0.80;;;18.80;59.00;;;;;;6172629;23;20191;-82
2022/10/17 00:53:22;;;;;;;1.33;1.00;;;18.80;59.00;;;;;;6173218;23;20151;-82
2022/10/17 00:55:54;;;;;;;1.77;0.90;;;18.80;59.00;;;;;;6148425;23;20155;-82
2022/10/17 00:58:23;;;;;;;1.85;0.95;;;18.80;59.10;;;;;;6124914;23;20177;-81
2022/10/17 01:00:55;;;;;;;1.10;0.90;;;18.80;59.10;;;;;;6125668;23;20178;-81
2022/10/17 01:03:26;;;;;;;1.25;1.00;;;18.80;59.10;;;;;;6149690;23;20165;-82
2022/10/17 01:05:56;;;;;;;1.17;1.00;;;18.80;59.10;;;;;;6150722;23;20158;-81
2022/10/17 01:08:28;;;;;;;1.10;0.90;;;18.80;59.10;;;;;;6126055;23;20161;-81
2022/10/17 01:11:12;;;;;;;1.13;1.02;;;18.80;59.10;;;;;;6149618;23;20155;-81
2022/10/17 01:13:49;;;;;;;1.20;1.10;;;18.70;59.10;;;;;;6152338;23;20154;-82
2022/10/17 01:16:40;;;;;;;1.30;0.90;;;18.70;59.10;;;;;;6149954;23;20150;-81
2022/10/17 01:19:31;;;;;;;1.00;0.85;;;18.70;59.10;;;;;;6178275;23;20158;-81
2022/10/17 01:22:12;;;;;;;0.90;0.90;;;18.70;59.80;;;;;;6175849;23;20522;-82
2022/10/17 01:24:48;;;;;;;1.88;1.02;;;18.80;59.10;;;;;;6149440;23;20477;-81
2022/10/17 01:27:41;;;;;;;1.10;0.93;;;18.70;59.10;;;;;;6086645;23;20152;-81
2022/10/17 01:30:41;;;;;;;1.30;0.88;;;18.70;59.20;;;;;;6068395;23;20161;-81
2022/10/17 01:33:21;;;;;;;1.33;1.10;;;18.70;59.20;;;;;;6045256;23;20517;-81
2022/10/17 01:35:59;;;;;;;1.17;1.00;;;18.70;59.20;;;;;;6016800;23;20153;-81
2022/10/17 01:38:30;;;;;;;1.48;1.13;;;18.80;59.20;;;;;;6016269;23;20235;-82
2022/10/17 01:41:02;;;;;;;1.15;1.00;;;18.70;59.20;;;;;;6062340;23;20181;-81
2022/10/17 01:43:50;;;;;;;1.17;1.00;;;18.70;59.20;;;;;;6085660;23;20144;-81
2022/10/17 01:46:44;;;;;;;1.13;0.95;;;18.70;59.20;;;;;;6039538;23;20216;-81
2022/10/17 01:49:15;;;;;;;1.20;1.10;;;18.70;59.20;;;;;;6038924;23;20163;-81
2022/10/17 01:51:48;;;;;;;1.20;0.90;;;18.70;59.20;;;;;;6037382;23;20687;-82
2022/10/17 01:54:18;;;;;;;1.40;1.10;;;18.70;59.20;;;;;;6037997;23;20160;-82
2022/10/17 01:56:55;;;;;;;2.30;1.00;;;18.70;59.20;;;;;;6062194;23;20164;-81
2022/10/17 01:59:23;;;;;;;1.10;1.00;;;18.70;59.20;;;;;;6123145;23;20177;-81
2022/10/17 02:01:58;;;;;;;0.80;0.80;;;18.70;59.20;;;;;;6174273;23;20170;-81
2022/10/17 02:04:25;;;;;;;1.20;0.80;;;18.70;59.20;;;;;;6125419;23;20172;-81
2022/10/17 02:07:07;;;;;;;1.20;1.10;;;18.70;59.30;;;;;;6150871;23;20143;-81
2022/10/17 02:09:37;;;;;;;1.00;0.90;;;18.80;59.40;;;;;;6128450;23;20249;-82
2022/10/17 02:12:26;;;;;;;1.75;1.00;;;18.70;59.30;;;;;;6124464;23;20167;-81
2022/10/17 02:15:23;;;;;;;1.00;0.90;;;18.80;59.30;;;;;;6149734;23;20150;-81
2022/10/17 02:18:09;;;;;;;1.75;1.00;;;18.70;59.20;;;;;;6173792;23;20210;-82
2022/10/17 02:20:50;;;;;;;1.10;0.82;;;18.70;59.30;;;;;;6154281;23;20202;-82
2022/10/17 02:23:27;;;;;;;1.20;0.85;;;18.70;59.30;;;;;;6101635;23;20151;-82
2022/10/17 02:26:04;;;;;;;1.10;1.00;;;18.70;59.40;;;;;;6125229;23;20154;-82
2022/10/17 02:28:46;;;;;;;1.27;0.93;;;18.80;59.30;;;;;;6174660;23;20166;-82
2022/10/17 02:31:21;;;;;;;1.35;0.98;;;18.70;59.30;;;;;;6149518;23;20149;-81
2022/10/17 02:33:54;;;;;;;0.85;0.82;;;18.70;59.30;;;;;;6125117;23;20150;-82
2022/10/17 02:36:28;;;;;;;0.77;0.73;;;18.70;59.30;;;;;;6150224;23;20134;-82
2022/10/17 02:38:54;;;;;;;2.40;1.15;;;18.70;59.30;;;;;;6125344;23;20174;-81
2022/10/17 02:41:20;;;;;;;1.15;0.90;;;18.70;59.30;;;;;;6174476;23;20159;-82
2022/10/17 02:43:47;;;;;;;1.17;1.00;;;18.80;59.40;;;;;;6149699;23;20139;-82
2022/10/17 02:46:19;;;;;;;1.50;1.15;;;18.70;59.40;;;;;;6149627;23;20243;-81
2022/10/17 02:49:04;;;;;;;0.70;0.70;;;18.70;59.40;;;;;;6101205;23;20151;-81
2022/10/17 02:51:44;;;;;;;1.15;0.98;;;18.70;59.40;;;;;;6128824;23;20286;-82
2022/10/17 02:54:30;;;;;;;1.02;0.80;;;18.70;59.40;;;;;;6174648;23;20135;-81
2022/10/17 02:57:11;;;;;;;0.80;0.70;;;18.70;59.40;;;;;;6127346;23;20162;-82
2022/10/17 02:59:46;;;;;;;1.05;0.90;;;18.70;59.40;;;;;;6101487;23;20157;-81
2022/10/17 03:02:12;;;;;;;0.70;0.70;;;18.70;59.40;;;;;;6100276;23;20526;-81
2022/10/17 03:04:45;;;;;;;1.00;0.80;;;18.70;59.50;;;;;;6150697;23;20138;-82
2022/10/17 03:07:11;;;;;;;1.00;0.90;;;18.70;59.50;;;;;;6100958;23;20174;-82
2022/10/17 03:09:37;;;;;;;1.17;0.80;;;18.70;59.50;;;;;;6149857;23;20197;-81
2022/10/17 03:12:03;;;;;;;1.10;0.95;;;18.60;59.50;;;;;;6175040;23;20143;-81
2022/10/17 03:14:29;;;;;;;0.90;0.85;;;18.60;59.50;;;;;;6175082;23;20156;-81
2022/10/17 03:16:55;;;;;;;1.40;0.98;;;18.60;59.50;;;;;;6150842;23;20159;-81
2022/10/17 03:19:25;;;;;;;1.40;1.00;;;18.70;59.60;;;;;;6150495;23;20252;-81
2022/10/17 03:22:02;;;;;;;0.98;0.90;;;18.70;59.60;;;;;;6124546;23;20187;-81
2022/10/17 03:24:28;;;;;;;1.00;0.90;;;18.60;59.50;;;;;;6124216;23;20170;-81
2022/10/17 03:26:58;;;;;;;1.25;0.93;;;18.70;59.60;;;;;;6149796;23;20146;-81
2022/10/17 03:29:24;;;;;;;0.95;0.63;;;18.60;59.50;;;;;;6125524;23;20151;-82
2022/10/17 03:31:55;;;;;;;1.10;0.82;;;18.60;59.50;;;;;;6150575;23;20169;-82
2022/10/17 03:34:25;;;;;;;0.90;0.90;;;18.60;59.60;;;;;;6124447;23;20150;-82
2022/10/17 03:36:51;;;;;;;1.42;0.80;;;18.60;59.60;;;;;;6124519;23;20154;-81
2022/10/17 03:39:17;;;;;;;0.80;0.80;;;18.60;59.60;;;;;;6150743;23;20142;-81
2022/10/17 03:41:43;;;;;;;1.52;1.02;;;18.60;59.60;;;;;;6150847;23;20617;-81
2022/10/17 03:44:21;;;;;;;1.55;0.98;;;18.60;59.60;;;;;;6174733;23;20138;-81
2022/10/17 03:46:46;;;;;;;1.08;0.98;;;18.60;59.60;;;;;;6101065;23;20155;-81
2022/10/17 03:49:13;;;;;;;1.05;0.95;;;18.60;59.60;;;;;;6174959;23;20137;-82
2022/10/17 03:51:45;;;;;;;1.05;0.90;;;18.60;59.60;;;;;;6167677;23;20705;-82
2022/10/17 03:54:21;;;;;;;1.20;1.00;;;18.70;59.70;;;;;;6129890;23;20158;-81
2022/10/17 03:56:47;;;;;;;1.17;0.90;;;18.60;59.70;;;;;;6130110;23;20160;-81
2022/10/17 03:59:14;;;;;;;0.77;0.77;;;18.60;59.60;;;;;;6179603;23;20160;-82
2022/10/17 04:01:49;;;;;;;1.70;0.90;;;18.70;59.70;;;;;;6179353;23;20173;-82
2022/10/17 04:04:22;;;;;;;1.23;1.02;;;18.60;59.70;;;;;;6153780;23;20149;-81
2022/10/17 04:06:57;;;;;;;1.08;0.80;;;18.60;59.70;;;;;;6105276;23;20157;-81
2022/10/17 04:09:27;;;;;;;1.33;0.90;;;18.60;59.70;;;;;;6129856;23;20247;-81
2022/10/17 04:11:53;;;;;;;1.45;0.90;;;18.70;59.70;;;;;;6105500;23;20154;-81
2022/10/17 04:14:23;;;;;;;1.95;1.10;;;18.70;59.70;;;;;;6180791;23;20148;-81
2022/10/17 04:16:56;;;;;;;1.08;0.98;;;18.60;59.70;;;;;;6105755;23;20154;-81
2022/10/17 04:19:22;;;;;;;1.17;0.90;;;18.60;59.70;;;;;;6090778;23;20294;-82
2022/10/17 04:21:52;;;;;;;1.10;1.00;;;18.60;59.70;;;;;;6090202;23;20191;-81
2022/10/17 04:24:24;;;;;;;1.20;1.00;;;18.60;59.70;;;;;;6091007;23;20210;-81
2022/10/17 04:26:57;;;;;;;1.13;1.00;;;18.60;59.80;;;;;;6067461;23;20175;-82
2022/10/17 04:29:24;;;;;;;0.80;0.80;;;18.70;59.80;;;;;;6066547;23;20187;-81
2022/10/17 04:31:51;;;;;;;1.05;0.82;;;18.60;59.80;;;;;;6115047;23;20152;-82
2022/10/17 04:34:17;;;;;;;0.70;0.70;;;18.60;59.80;;;;;;6093295;23;20503;-81
2022/10/17 04:36:48;;;;;;;1.10;0.80;;;18.60;59.80;;;;;;6092526;23;20152;-81
2022/10/17 04:39:17;;;;;;;0.98;0.80;;;18.60;59.80;;;;;;6092175;23;20152;-82
2022/10/17 04:41:48;;;;;;;1.17;1.08;;;18.60;59.80;;;;;;6043535;23;20199;-81
2022/10/17 04:44:14;;;;;;;0.80;0.75;;;18.60;59.80;;;;;;6110046;23;20233;-82
2022/10/17 04:46:44;;;;;;;0.93;0.85;;;18.60;59.80;;;;;;6182537;23;20149;-81
2022/10/17 04:49:14;;;;;;;1.20;1.00;;;18.60;59.80;;;;;;6108525;23;20571;-81
2022/10/17 04:51:46;;;;;;;0.95;0.88;;;18.60;59.80;;;;;;6131161;23;20225;-81
2022/10/17 04:54:12;;;;;;;0.77;0.70;;;18.60;59.80;;;;;;6107560;23;20493;-82
2022/10/17 04:56:46;;;;;;;1.45;0.90;;;18.60;59.80;;;;;;6181956;23;20142;-81
2022/10/17 04:59:16;;;;;;;0.80;0.70;;;18.60;59.50;;;;;;6156552;23;20146;-81
2022/10/17 05:01:47;;;;;;;1.00;0.70;;;18.50;59.40;;;;;;6156149;23;20186;-82
2022/10/17 05:04:13;;;;;;;0.80;0.80;;;18.60;59.40;;;;;;6132647;23;20150;-81
2022/10/17 05:06:39;;;;;;;0.80;0.70;;;18.60;59.40;;;;;;6205178;23;20189;-82
2022/10/17 05:09:09;;;;;;;0.65;0.60;;;18.60;59.40;;;;;;6179708;23;20165;-82
2022/10/17 05:11:35;;;;;;;0.70;0.70;;;18.60;59.30;;;;;;6129585;23;20173;-81
2022/10/17 05:14:05;;;;;;;0.70;0.70;;;18.60;58.80;;;;;;6178892;23;20482;-81
2022/10/17 05:16:36;;;;;;;0.73;0.73;;;18.60;58.50;;;;;;6154697;23;20173;-81
2022/10/17 05:19:06;;;;;;;1.05;0.70;;;18.60;58.30;;;;;;6105534;23;20209;-81
2022/10/17 05:21:32;;;;;;;0.80;0.60;;;18.60;58.00;;;;;;6179435;23;20201;-81
2022/10/17 05:24:05;;;;;;;0.90;0.70;;;18.60;57.80;;;;;;6179732;23;20170;-82
2022/10/17 05:26:35;;;;;;;0.40;0.40;;;18.60;57.60;;;;;;6108457;23;20150;-81
2022/10/17 05:29:01;;;;;;;0.63;0.60;;;18.60;57.50;;;;;;6107965;23;20150;-82
2022/10/17 05:31:29;;;;;;;0.93;0.70;;;18.70;57.60;;;;;;6186297;23;20221;-81
2022/10/17 05:34:05;;;;;;;1.08;0.65;;;18.70;57.30;;;;;;6186736;23;20119;-82
2022/10/17 05:36:36;;;;;;;0.60;0.60;;;18.70;57.30;;;;;;6118764;23;20150;-81
2022/10/17 05:39:07;;;;;;;0.60;0.60;;;18.70;57.30;;;;;;6130592;23;20285;-80
2022/10/17 05:41:34;;;;;;;1.63;0.60;;;18.70;57.20;;;;;;6106056;23;20187;-81
2022/10/17 05:44:00;;;;;;;1.08;0.55;;;18.70;57.10;;;;;;6128845;23;20166;-81
2022/10/17 05:46:31;;;;;;;0.70;0.70;;;18.70;56.90;;;;;;6095398;23;20165;-81
2022/10/17 05:48:57;;;;;;;1.02;0.60;;;18.70;56.80;;;;;;6070137;23;20184;-81
2022/10/17 05:51:32;;;;;;;0.70;0.60;;;18.70;56.80;;;;;;6119122;23;20656;-81
2022/10/17 05:54:10;;;;;;;0.55;0.50;;;18.70;56.60;;;;;;6118859;23;20149;-82
2022/10/17 05:56:55;;;;;;;0.80;0.50;;;18.70;56.60;;;;;;6073353;23;20163;-81
2022/10/17 05:59:46;;;;;;;0.77;0.65;;;18.70;56.50;;;;;;6049313;23;20140;-80
2022/10/17 06:02:40;;;;;;;0.47;0.47;;;18.70;56.30;;;;;;6095302;23;20176;-81
2022/10/17 06:15:30;;;;;;;1.50;0.43;;;18.80;56.10;;;;;;6224984;22;20234;-80
2022/10/17 06:18:01;;;;;;;0.70;0.60;;;18.80;55.90;;;;;;6162165;23;20206;-80
2022/10/17 06:20:38;;;;;;;0.50;0.50;;;18.80;56.00;;;;;;6128230;23;20150;-87
2022/10/17 06:23:10;;;;;;;0.77;0.60;;;18.80;56.10;;;;;;6121752;23;20162;-84
2022/10/17 06:25:47;;;;;;;0.50;0.50;;;18.80;55.90;;;;;;6194475;23;20180;-85
2022/10/17 06:28:41;;;;;;;0.50;0.50;;;18.80;55.80;;;;;;6194904;23;20134;-83
2022/10/17 06:31:11;;;;;;;0.98;0.50;;;18.80;55.90;;;;;;6148505;23;20154;-84
2022/10/17 06:33:37;;;;;;;0.68;0.50;;;18.80;55.90;;;;;;6197061;23;20191;-82
2022/10/17 06:36:12;;;;;;;0.85;0.70;;;18.80;55.80;;;;;;6170610;23;20217;-84
2022/10/17 06:38:48;;;;;;;0.60;0.45;;;18.80;55.80;;;;;;6148291;23;20137;-86
2022/10/17 06:41:45;;;;;;;0.52;0.50;;;18.90;55.70;;;;;;6146056;23;20178;-84
2022/10/17 06:44:16;;;;;;;0.82;0.52;;;18.80;55.70;;;;;;6048697;23;20188;-83
2022/10/17 06:46:45;;;;;;;0.60;0.60;;;18.80;55.60;;;;;;6043945;23;20555;-83
2022/10/17 06:49:11;;;;;;;0.88;0.60;;;18.80;55.70;;;;;;5997385;23;20189;-84
2022/10/17 06:59:58;;;;;;;1.33;0.55;;;18.80;55.50;;;;;;5879857;24;20263;-81
2022/10/17 07:02:37;;;;;;;2.05;0.60;;;18.90;55.50;;;;;;5855635;24;20325;-81
2022/10/17 07:05:03;;;;;;;1.58;0.70;;;19.00;55.60;;;;;;5832594;24;20443;-81
2022/10/17 07:07:57;;;;;;;1.77;0.60;;;19.00;55.50;;;;;;5857661;24;20159;-83
2022/10/17 07:10:36;;;;;;;;;;;;;;;;;;;;;
2022/10/17 07:13:07;;;;;;;1.55;0.65;;;19.10;55.30;;;;;;5810893;24;20156;-80
2022/10/17 07:15:56;;;;;;;3.13;0.80;;;19.10;55.30;;;;;;5810215;24;20207;-81
2022/10/17 07:18:40;;;;;;;3.40;0.50;;;19.00;55.20;;;;;;5812008;24;20220;-81
2022/10/17 07:24:46;;;;;;;1.17;0.52;;;19.00;55.00;;;;;;5825626;24;20167;-84
2022/10/17 07:27:20;;;;;;;1.75;0.45;;;19.00;54.80;;;;;;5823913;24;20160;-81
2022/10/17 07:29:47;;;;;;;1.15;0.60;;;19.00;54.90;;;;;;5843631;24;20155;-82
2022/10/17 07:32:15;;;;;;;0.60;0.52;;;19.00;55.70;;;;;;5874820;24;20172;-82
2022/10/17 07:34:45;;;;;;;1.45;0.50;;;19.00;55.00;;;;;;5923902;23;20158;-82
2022/10/17 07:37:25;;;;;;;1.13;0.60;;;19.00;55.20;;;;;;5990928;23;20500;-83
2022/10/17 07:40:01;;;;;;;1.38;0.50;;;19.00;55.30;;;;;;5965432;24;20155;-82
2022/10/17 07:42:28;;;;;;;1.40;0.57;;;19.00;55.30;;;;;;5988208;24;20215;-82
2022/10/17 07:45:11;;;;;;;2.15;0.50;;;19.00;55.10;;;;;;5985359;24;20532;-82
2022/10/17 07:48:19;;;;;;;0.43;0.40;;;19.10;54.80;;;;;;5994187;23;20543;-82
2022/10/17 07:51:01;;;;;;;0.70;0.50;;;19.10;54.90;;;;;;5984053;23;20487;-81
2022/10/17 07:53:30;;;;;;;2.17;0.43;;;19.10;55.00;;;;;;5988089;23;20143;-81
2022/10/17 07:56:06;;;;;;;2.38;0.45;;;19.10;54.90;;;;;;5977831;23;20189;-81
2022/10/17 07:59:03;;;;;;;1.15;0.40;;;19.10;54.90;;;;;;5986068;23;20525;-82
2022/10/17 08:01:32;;;;;;;0.63;0.47;;;19.10;54.70;;;;;;5996985;23;20194;-82
2022/10/17 08:04:00;;;;;;;0.63;0.47;;;19.10;54.60;;;;;;5985092;23;20150;-81
2022/10/17 08:06:48;;;;;;;1.48;0.50;;;19.10;54.50;;;;;;5949151;24;20163;-80
2022/10/17 08:09:17;;;;;;;1.83;0.43;;;19.10;54.80;;;;;;5952112;24;20267;-81
2022/10/17 08:11:43;;;;;;;2.45;0.50;;;19.10;54.70;;;;;;5930931;24;20171;-81
2022/10/17 08:14:13;;;;;;;4.40;0.50;;;19.10;54.70;;;;;;5958486;24;20607;-80
2022/10/17 08:16:40;;;;;;;3.53;0.90;;;19.10;55.40;;;;;;5957477;24;20199;-81
2022/10/17 08:19:14;;;;;;;2.50;0.50;;;19.10;54.90;;;;;;5995968;23;20162;-81
2022/10/17 08:21:59;;;;;;;;;;;;;;;;;;;;;
2022/10/17 08:24:43;;;;;;;0.77;0.55;;;19.20;54.70;;;;;;5989853;23;20246;-82
2022/10/17 08:27:12;;;;;;;1.58;0.50;;;19.20;54.70;;;;;;5935076;24;20152;-81
2022/10/17 08:30:16;;;;;;;2.30;0.60;;;19.20;54.70;;;;;;5956920;24;20156;-80
2022/10/17 08:33:26;;;;;;;0.90;0.47;;;19.20;54.70;;;;;;5914170;23;20221;-81
2022/10/17 08:40:05;;;;;;;3.95;0.75;;;19.20;55.00;;;;;;6071264;23;20156;-82
2022/10/17 08:43:38;;;;;;;1.10;0.60;;;19.20;55.00;;;;;;6064114;23;20330;-82
2022/10/17 08:46:24;;;;;;;0.50;0.40;;;19.20;55.00;;;;;;6039401;23;20228;-82
2022/10/17 08:52:22;;;;;;;1.10;0.80;;;19.20;55.00;;;;;;5942559;23;20159;-81
2022/10/17 09:01:49;;;;;;;0.85;0.38;;;19.30;55.30;;;;;;6011400;23;20686;-83
2022/10/17 09:08:32;;;;;;;;;;;;;;;;;;;;;
2022/10/17 09:11:40;;;;;;;3.25;0.70;;;19.30;55.20;;;;;;6011507;23;20159;-82
2022/10/17 09:19:00;;;;;;;2.50;0.50;;;19.40;55.40;;;;;;6078593;23;20254;-81
2022/10/17 09:35:43;;;;;;;1.33;0.57;;;19.40;55.00;;;;;;6063820;23;20233;-81
2022/10/17 09:38:54;;;;;;;1.35;0.50;;;19.40;54.90;;;;;;6002286;24;20147;-82
2022/10/17 09:41:37;;;;;;;1.75;0.50;;;19.40;54.80;;;;;;5947297;24;20198;-80
2022/10/17 09:44:27;;;;;;;1.27;0.50;;;19.40;54.60;;;;;;5992940;24;20141;-81
2022/10/17 09:47:17;;;;;;;1.17;0.60;;;19.40;54.60;;;;;;5972571;24;20183;-81
2022/10/17 09:49:48;;;;;;;2.80;0.80;;;19.40;54.70;;;;;;5972188;24;20160;-80
2022/10/17 09:52:23;;;;;;;0.98;0.55;;;19.40;54.80;;;;;;5929762;24;20163;-82
2022/10/17 09:55:21;;;;;;;3.90;0.80;;;19.40;54.70;;;;;;5951010;24;20215;-81
2022/10/17 09:58:04;;;;;;;0.93;0.60;;;19.40;54.60;;;;;;5960519;24;20172;-82
2022/10/17 10:00:41;;;;;;;2.00;0.50;;;19.30;54.60;;;;;;5932991;24;20162;-81
2022/10/17 10:03:18;;;;;;;1.38;0.57;;;19.40;54.60;;;;;;5859088;24;20290;-81
2022/10/17 10:06:11;;;;;;;0.60;0.50;;;19.40;54.50;;;;;;5889598;24;20163;-81
2022/10/17 10:09:04;;;;;;;1.73;0.45;;;19.40;54.50;;;;;;5842152;24;20176;-80
2022/10/17 10:11:44;;;;;;;1.30;0.40;;;19.40;54.30;;;;;;5855236;24;20156;-81
2022/10/17 10:14:18;;;;;;;1.58;0.52;;;19.40;54.20;;;;;;5918797;24;20235;-81
2022/10/17 10:16:45;;;;;;;0.95;0.52;;;19.40;54.10;;;;;;5959255;23;20195;-80
2022/10/17 10:19:20;;;;;;;1.88;0.60;;;19.30;54.00;;;;;;5956902;24;20204;-83
2022/10/17 10:22:02;;;;;;;2.53;0.50;;;19.40;53.90;;;;;;6008827;23;20190;-81
2022/10/17 10:24:31;;;;;;;0.40;0.40;;;19.40;53.80;;;;;;6051382;23;20164;-81
2022/10/17 10:27:04;;;;;;;1.75;0.43;;;19.40;53.80;;;;;;6128417;23;20652;-79
2022/10/17 10:29:36;;;;;;;0.57;0.40;;;19.40;53.50;;;;;;6011065;23;20231;-82
2022/10/17 10:32:18;;;;;;;0.45;0.32;;;19.40;53.70;;;;;;6054413;23;20195;-80
2022/10/17 10:35:10;;;;;;;0.60;0.50;;;19.40;53.70;;;;;;6092612;23;20591;-82
2022/10/17 10:37:44;;;;;;;0.73;0.47;;;19.30;53.70;;;;;;6049857;23;20185;-82
2022/10/17 10:40:24;;;;;;;0.75;0.50;;;19.40;53.80;;;;;;6016148;23;20170;-80
2022/10/17 10:43:19;;;;;;;0.40;0.40;;;19.40;53.70;;;;;;5987864;23;20307;-82
2022/10/17 10:45:45;;;;;;;0.80;0.40;;;19.40;53.50;;;;;;5987458;23;20231;-81
2022/10/17 10:48:33;;;;;;;1.10;0.50;;;19.40;53.50;;;;;;5985834;23;20248;-81
2022/10/17 10:51:11;;;;;;;0.80;0.50;;;19.40;53.40;;;;;;5986083;23;20230;-81
2022/10/17 10:54:03;;;;;;;0.50;0.32;;;19.40;53.60;;;;;;6009995;23;20208;-80
2022/10/17 10:56:39;;;;;;;5.43;0.57;;;19.30;53.30;;;;;;5986287;23;20150;-82
2022/10/17 10:59:19;;;;;;;1.30;0.52;;;19.40;53.40;;;;;;6009827;23;20157;-81
2022/10/17 11:02:24;;;;;;;1.02;0.65;;;19.40;53.40;;;;;;6010091;23;20563;-80
2022/10/17 11:04:56;;;;;;;1.65;0.43;;;19.40;53.50;;;;;;6048134;23;20153;-82
2022/10/17 11:07:27;;;;;;;3.83;0.60;;;19.40;53.20;;;;;;6082165;23;20145;-81
2022/10/17 11:09:59;;;;;;;5.85;0.85;;;19.40;53.40;;;;;;6139139;23;20201;-82
2022/10/17 11:12:38;;;;;;;2.28;0.63;;;19.40;53.30;;;;;;6160965;23;20193;-81
2022/10/17 11:15:26;;;;;;;2.08;0.60;;;19.40;53.10;;;;;;6136377;23;20185;-81
2022/10/17 11:18:02;;;;;;;1.55;0.57;;;19.40;53.10;;;;;;6160453;23;20189;-81
2022/10/17 11:20:46;;;;;;;0.85;0.45;;;19.40;52.70;;;;;;6154881;23;20280;-81
2022/10/17 11:23:20;;;;;;;0.65;0.40;;;19.40;52.60;;;;;;6162454;23;20142;-81
2022/10/17 11:25:47;;;;;;;0.95;0.60;;;19.40;52.10;;;;;;6162578;23;20154;-81
2022/10/17 11:28:17;;;;;;;2.47;0.50;;;19.40;52.30;;;;;;6138446;23;20151;-80
2022/10/17 11:31:03;;;;;;;1.02;0.40;;;19.50;52.20;;;;;;6136790;23;20137;-81
2022/10/17 11:33:48;;;;;;;0.50;0.40;;;19.50;52.30;;;;;;6161590;23;20164;-81
2022/10/17 11:36:15;;;;;;;1.45;0.50;;;19.50;52.50;;;;;;6137417;23;20596;-81
2022/10/17 11:38:47;;;;;;;3.95;0.50;;;19.40;52.60;;;;;;6161926;23;20150;-80
2022/10/17 11:41:17;;;;;;;0.85;0.47;;;19.40;52.30;;;;;;6137889;23;20182;-80
2022/10/17 11:43:56;;;;;;;0.80;0.50;;;19.40;52.30;;;;;;6137833;23;20282;-81
2022/10/17 11:46:23;;;;;;;1.20;0.50;;;19.50;52.50;;;;;;6160999;23;20151;-81
2022/10/17 11:49:22;;;;;;;0.50;0.40;;;19.30;52.20;;;;;;6161633;23;20131;-81
2022/10/17 11:51:54;;;;;;;1.20;0.40;;;19.40;52.10;;;;;;6162079;23;20575;-80
2022/10/17 11:54:40;;;;;;;0.40;0.40;;;19.40;52.20;;;;;;6137920;23;20462;-80
2022/10/17 11:57:21;;;;;;;0.63;0.30;;;19.40;52.30;;;;;;6161948;23;20151;-80
2022/10/17 12:00:21;;;;;;;0.50;0.50;;;19.40;52.20;;;;;;6160877;23;20145;-81
2022/10/17 12:03:11;;;;;;;0.40;0.40;;;19.50;52.20;;;;;;6161020;23;20200;-80
2022/10/17 12:05:47;;;;;;;0.30;0.30;;;19.50;52.10;;;;;;6126089;23;20619;-81
2022/10/17 12:08:31;;;;;;;0.43;0.43;;;19.50;52.20;;;;;;6099587;23;20136;-80
2022/10/17 12:11:21;;;;;;;0.70;0.47;;;19.40;52.00;;;;;;6124040;23;20140;-81
2022/10/17 12:13:50;;;;;;;0.57;0.40;;;19.50;52.10;;;;;;6102723;23;20257;-81
2022/10/17 12:16:36;;;;;;;0.45;0.30;;;19.40;52.00;;;;;;6099440;23;20159;-81
2022/10/17 12:19:25;;;;;;;2.47;0.40;;;19.50;52.00;;;;;;6098958;23;20270;-81
2022/10/17 12:21:56;;;;;;;1.45;0.40;;;19.50;52.00;;;;;;6099003;23;20537;-80
2022/10/17 12:24:44;;;;;;;1.02;0.47;;;19.50;52.10;;;;;;6075731;23;20299;-82
2022/10/17 12:27:22;;;;;;;1.63;0.30;;;19.50;52.10;;;;;;6077295;23;20155;-82
2022/10/17 12:29:57;;;;;;;1.67;0.35;;;19.50;52.20;;;;;;6075427;23;20160;-80
2022/10/17 12:32:23;;;;;;;0.80;0.47;;;19.50;52.30;;;;;;6054199;23;20166;-81
2022/10/17 12:34:56;;;;;;;0.80;0.40;;;19.50;52.10;;;;;;6099561;23;20172;-81
2022/10/17 12:38:00;;;;;;;0.50;0.38;;;19.50;52.20;;;;;;6131669;23;20162;-82
2022/10/17 12:40:50;;;;;;;0.40;0.30;;;19.40;52.30;;;;;;6094709;23;20156;-82
2022/10/17 12:43:38;;;;;;;1.00;0.47;;;19.50;52.20;;;;;;6049430;23;20152;-83
2022/10/17 12:46:07;;;;;;;1.17;0.43;;;19.40;52.30;;;;;;6056795;23;20613;-82
2022/10/17 12:49:01;;;;;;;1.20;0.20;;;19.40;52.30;;;;;;6074294;23;20153;-83
2022/10/17 12:51:51;;;;;;;0.55;0.38;;;19.50;52.30;;;;;;6096840;23;20149;-81
2022/10/17 12:54:30;;;;;;;0.50;0.40;;;19.50;52.40;;;;;;6078440;23;20224;-82
2022/10/17 12:56:58;;;;;;;0.70;0.40;;;19.50;52.40;;;;;;6030288;23;20659;-83
2022/10/17 12:59:30;;;;;;;0.60;0.35;;;19.50;52.30;;;;;;6074642;23;20524;-82
2022/10/17 13:02:00;;;;;;;0.70;0.50;;;19.50;52.30;;;;;;6028782;23;20232;-82
2022/10/17 13:04:27;;;;;;;0.63;0.47;;;19.50;52.50;;;;;;6073509;23;20141;-82
2022/10/17 13:06:55;;;;;;;0.50;0.35;;;19.50;52.40;;;;;;6072705;23;20670;-83
2022/10/17 13:09:28;;;;;;;0.43;0.43;;;19.50;52.40;;;;;;6048129;23;20148;-82
2022/10/17 13:12:00;;;;;;;0.40;0.40;;;19.50;52.40;;;;;;6110971;23;20154;-83
2022/10/17 13:14:26;;;;;;;1.10;0.30;;;19.50;52.50;;;;;;6137375;23;20159;-82
2022/10/17 13:16:56;;;;;;;0.60;0.60;;;19.50;52.40;;;;;;6185468;23;20151;-81
2022/10/17 13:19:26;;;;;;;0.73;0.50;;;19.50;52.50;;;;;;6159768;23;20288;-83
2022/10/17 13:21:56;;;;;;;0.90;0.45;;;19.40;52.30;;;;;;6125172;23;20187;-82
2022/10/17 13:24:37;;;;;;;0.60;0.30;;;19.50;52.40;;;;;;6102222;23;20611;-82
2022/10/17 13:27:07;;;;;;;0.52;0.40;;;19.50;52.50;;;;;;6006984;23;20572;-81
2022/10/17 13:29:38;;;;;;;1.02;0.40;;;19.50;52.50;;;;;;6077882;23;20156;-81
2022/10/17 13:32:07;;;;;;;0.45;0.40;;;19.40;52.60;;;;;;6101231;23;20156;-83
2022/10/17 13:34:44;;;;;;;0.60;0.40;;;19.40;52.60;;;;;;6096166;23;20177;-83
2022/10/17 13:37:28;;;;;;;0.70;0.38;;;19.40;52.70;;;;;;6048071;23;20160;-82
2022/10/17 13:40:02;;;;;;;1.00;0.43;;;19.50;52.70;;;;;;6048228;23;20183;-82
2022/10/17 13:42:37;;;;;;;0.57;0.40;;;19.40;52.70;;;;;;6048201;23;20190;-83
2022/10/17 13:45:14;;;;;;;0.50;0.30;;;19.50;52.80;;;;;;6048329;23;20184;-81
2022/10/17 13:47:59;;;;;;;1.63;0.40;;;19.40;52.80;;;;;;6067245;23;20157;-82
2022/10/17 13:50:39;;;;;;;0.75;0.57;;;19.40;52.90;;;;;;6020418;23;20156;-81
2022/10/17 13:53:22;;;;;;;0.70;0.32;;;19.40;52.90;;;;;;6102232;23;20231;-83
2022/10/17 13:56:21;;;;;;;0.88;0.60;;;19.40;53.00;;;;;;6073475;23;20184;-82
2022/10/17 13:59:17;;;;;;;;;;;;;;;;;;;;;
2022/10/17 14:01:54;;;;;;;1.13;0.50;;;19.40;53.30;;;;;;6089908;23;20259;-82
2022/10/17 14:04:52;;;;;;;0.40;0.35;;;19.40;53.30;;;;;;6095863;23;20160;-82
2022/10/17 14:07:41;;;;;;;0.80;0.50;;;19.40;53.50;;;;;;6016629;23;20190;-82
2022/10/17 14:10:26;;;;;;;0.75;0.52;;;19.40;53.60;;;;;;5966314;23;20287;-82
2022/10/17 14:12:55;;;;;;;0.55;0.35;;;19.40;53.60;;;;;;5986994;23;20253;-81
2022/10/17 14:15:32;;;;;;;2.15;0.65;;;19.40;53.60;;;;;;5983911;23;20162;-82
2022/10/17 14:18:04;;;;;;;0.40;0.40;;;19.40;53.50;;;;;;5928771;24;20328;-82
2022/10/17 14:20:32;;;;;;;1.00;0.50;;;19.50;53.60;;;;;;5952788;23;20295;-82
2022/10/17 14:22:59;;;;;;;0.60;0.45;;;19.40;53.70;;;;;;5929199;24;20195;-83
2022/10/17 14:26:24;;;;;;;0.80;0.50;;;19.40;53.80;;;;;;5953787;24;20162;-83
2022/10/17 14:28:24;;;;;;;0.82;0.40;;;19.40;53.70;;;;;;5949050;24;20180;-83
2022/10/17 14:31:10;;;;;;;0.52;0.50;;;19.40;53.70;;;;;;5975147;23;20160;-83
2022/10/17 14:33:41;;;;;;;0.73;0.60;;;19.40;53.70;;;;;;5931221;23;20188;-82
2022/10/17 14:36:11;;;;;;;2.45;0.60;;;19.40;53.70;;;;;;5954280;24;20160;-82